Time;durP1;ratioP1;P1;durP2;ratioP2;P2;SDS_P1;SDS_P2;PMS_P1;PMS_P2;Temp;Humidity;BMP_temperature;BMP_pressure;BME280_temperature;BME280_humidity;BME280_pressure;Samples;Min_cycle;Max_cycle;Signal;HPM_P1;HPM_P2
2023/05/15 00:00:39;;;;;;;97.70;31.83;;;10.10;99.90;;;;;;5039653;28;20086;-63
2023/05/15 00:03:05;;;;;;;141.02;29.35;;;10.00;99.90;;;;;;5036260;28;20041;-63
2023/05/15 00:05:32;;;;;;;72.78;24.42;;;10.00;99.90;;;;;;5043553;28;20041;-63
2023/05/15 00:07:57;;;;;;;80.07;32.47;;;10.00;99.90;;;;;;5036401;28;20459;-63
2023/05/15 00:10:23;;;;;;;74.60;30.50;;;10.00;99.90;;;;;;5037227;28;20041;-62
2023/05/15 00:12:49;;;;;;;80.90;32.53;;;9.90;99.90;;;;;;5038724;28;20483;-63
2023/05/15 00:15:14;;;;;;;80.38;29.55;;;9.80;99.90;;;;;;5030906;28;20044;-61
2023/05/15 00:17:40;;;;;;;118.13;32.60;;;9.80;99.90;;;;;;5034015;28;20049;-63
2023/05/15 00:20:08;;;;;;;118.85;30.67;;;9.80;99.90;;;;;;5034303;28;20498;-63
2023/05/15 00:22:34;;;;;;;140.75;32.83;;;9.80;99.90;;;;;;5032367;28;20063;-62
2023/05/15 00:24:59;;;;;;;113.80;35.15;;;9.70;99.90;;;;;;5038040;28;20045;-62
2023/05/15 00:27:25;;;;;;;95.93;33.85;;;9.70;99.90;;;;;;5035055;28;20472;-62
2023/05/15 00:29:51;;;;;;;126.93;34.72;;;9.70;99.90;;;;;;5044613;28;20062;-62
2023/05/15 00:32:16;;;;;;;172.70;33.28;;;9.70;99.90;;;;;;5044408;28;20099;-63
2023/05/15 00:34:42;;;;;;;121.80;34.00;;;9.70;99.90;;;;;;5046615;28;20052;-63
2023/05/15 00:37:07;;;;;;;192.63;33.28;;;9.70;99.90;;;;;;5044607;28;20124;-63
2023/05/15 00:39:33;;;;;;;296.15;36.83;;;9.70;99.90;;;;;;5048535;28;20076;-63
2023/05/15 00:41:59;;;;;;;133.43;33.83;;;9.70;99.90;;;;;;5050564;28;20408;-62
2023/05/15 00:44:26;;;;;;;363.83;39.63;;;9.70;99.90;;;;;;5049935;28;20036;-62
2023/05/15 00:46:53;;;;;;;307.65;36.58;;;9.60;99.90;;;;;;5048798;28;20094;-62
2023/05/15 00:49:21;;;;;;;296.85;36.88;;;9.70;99.90;;;;;;5049770;28;20128;-61
2023/05/15 00:51:46;;;;;;;320.50;37.78;;;9.60;99.90;;;;;;5047076;28;20518;-63
2023/05/15 00:54:12;;;;;;;194.80;29.08;;;9.60;99.90;;;;;;5047045;28;20127;-64
2023/05/15 00:56:39;;;;;;;156.40;32.95;;;9.60;99.90;;;;;;5051236;28;20454;-63
2023/05/15 00:59:06;;;;;;;138.90;33.35;;;9.60;99.90;;;;;;5048217;28;20474;-63
2023/05/15 01:01:33;;;;;;;226.48;34.85;;;9.60;99.90;;;;;;5051987;28;20053;-63
2023/05/15 01:04:03;;;;;;;128.68;26.80;;;9.60;99.90;;;;;;5051856;28;20053;-63
2023/05/15 01:06:32;;;;;;;155.50;30.25;;;9.50;99.90;;;;;;5052899;28;20519;-64
2023/05/15 01:09:03;;;;;;;125.97;29.45;;;9.60;99.90;;;;;;5049572;28;20041;-64
2023/05/15 01:11:34;;;;;;;137.32;34.10;;;9.50;99.90;;;;;;5066275;28;20076;-63
2023/05/15 01:14:04;;;;;;;87.15;33.17;;;9.60;99.90;;;;;;5040781;28;20048;-63
2023/05/15 01:16:30;;;;;;;79.93;31.40;;;9.60;99.90;;;;;;5048757;28;20045;-62
2023/05/15 01:18:55;;;;;;;81.38;32.17;;;9.60;99.90;;;;;;5042236;28;20044;-63
2023/05/15 01:21:36;;;;;;;78.38;31.52;;;9.50;99.90;;;;;;5045796;28;20468;-63
2023/05/15 01:24:08;;;;;;;73.43;30.42;;;9.50;99.90;;;;;;5043301;28;20045;-63
2023/05/15 01:26:48;;;;;;;71.40;33.10;;;9.50;99.90;;;;;;5047490;28;20040;-62
2023/05/15 01:29:36;;;;;;;97.68;33.72;;;9.50;99.90;;;;;;5021204;28;20184;-62
2023/05/15 01:32:07;;;;;;;118.50;33.63;;;9.40;99.90;;;;;;5049348;28;20102;-63
2023/05/15 01:34:42;;;;;;;149.90;33.17;;;9.50;99.90;;;;;;5032833;28;20048;-63
2023/05/15 01:37:10;;;;;;;87.35;32.42;;;9.40;99.90;;;;;;5035938;28;20068;-62
2023/05/15 01:39:41;;;;;;;76.03;33.22;;;9.50;99.90;;;;;;5036846;28;20102;-62
2023/05/15 01:42:12;;;;;;;149.27;32.25;;;9.40;99.90;;;;;;5031728;28;20042;-63
2023/05/15 01:44:43;;;;;;;82.50;32.20;;;9.40;99.90;;;;;;5032180;28;20045;-62
2023/05/15 01:47:16;;;;;;;92.50;31.67;;;9.40;99.90;;;;;;5040951;28;20064;-62
2023/05/15 01:49:44;;;;;;;112.38;33.03;;;9.40;99.90;;;;;;5046190;28;20029;-62
2023/05/15 01:52:34;;;;;;;84.82;32.70;;;9.30;99.90;;;;;;5042230;28;20068;-62
2023/05/15 01:55:06;;;;;;;106.35;30.80;;;9.40;99.90;;;;;;5043282;28;20052;-63
2023/05/15 01:57:32;;;;;;;78.00;32.45;;;9.30;99.90;;;;;;5030952;28;20060;-63
2023/05/15 01:59:59;;;;;;;85.10;33.63;;;9.30;99.90;;;;;;5041558;28;20096;-63
2023/05/15 02:02:27;;;;;;;64.03;30.33;;;9.30;99.90;;;;;;5038099;28;20038;-63
2023/05/15 02:04:55;;;;;;;60.15;24.75;;;9.40;99.90;;;;;;5044264;28;20103;-64
2023/05/15 02:07:20;;;;;;;106.57;31.30;;;9.40;99.90;;;;;;5048441;28;20072;-62
2023/05/15 02:09:47;;;;;;;81.47;30.42;;;9.40;99.90;;;;;;5046719;28;20076;-63
2023/05/15 02:12:14;;;;;;;69.05;31.92;;;9.30;99.90;;;;;;5046551;28;20045;-63
2023/05/15 02:14:41;;;;;;;99.78;32.42;;;9.30;99.90;;;;;;5042694;28;20073;-62
2023/05/15 02:17:07;;;;;;;85.57;32.80;;;9.30;99.90;;;;;;5037047;28;20041;-64
2023/05/15 02:19:33;;;;;;;66.40;28.95;;;9.30;99.90;;;;;;5033008;28;20048;-62
2023/05/15 02:21:58;;;;;;;74.80;34.20;;;9.30;99.90;;;;;;5029642;28;20042;-63
2023/05/15 02:24:24;;;;;;;73.47;34.60;;;9.30;99.90;;;;;;5031788;28;20546;-63
2023/05/15 02:27:08;;;;;;;68.97;33.35;;;9.30;99.90;;;;;;5045366;28;20107;-62
2023/05/15 02:29:53;;;;;;;61.03;31.75;;;9.30;99.90;;;;;;5034174;28;20691;-62
2023/05/15 02:32:39;;;;;;;62.45;31.92;;;9.30;99.90;;;;;;5043220;28;20498;-62
2023/05/15 02:35:30;;;;;;;74.22;33.50;;;9.20;99.90;;;;;;5039125;28;20132;-62
2023/05/15 02:37:59;;;;;;;73.53;34.45;;;9.30;99.90;;;;;;5036922;28;20033;-62
2023/05/15 02:40:27;;;;;;;68.65;33.20;;;9.30;99.90;;;;;;5035683;28;20088;-62
2023/05/15 02:42:53;;;;;;;73.63;34.33;;;9.20;99.90;;;;;;5030799;28;20096;-62
2023/05/15 02:45:20;;;;;;;65.30;32.03;;;9.20;99.90;;;;;;5031378;28;20091;-62
2023/05/15 02:47:49;;;;;;;67.95;33.53;;;9.30;99.90;;;;;;5041423;28;20044;-62
2023/05/15 02:50:15;;;;;;;67.25;32.80;;;9.20;99.90;;;;;;5030245;28;20548;-62
2023/05/15 02:52:40;;;;;;;80.50;34.72;;;9.30;99.90;;;;;;5038257;28;20088;-62
2023/05/15 02:55:07;;;;;;;175.02;36.67;;;9.30;99.90;;;;;;5036476;28;20037;-62
2023/05/15 02:57:32;;;;;;;77.95;31.85;;;9.30;99.90;;;;;;5040489;28;20071;-62
2023/05/15 02:59:58;;;;;;;68.25;32.33;;;9.30;99.90;;;;;;5037662;28;20049;-63
2023/05/15 03:02:24;;;;;;;72.85;33.58;;;9.30;99.90;;;;;;5038072;28;20045;-62
2023/05/15 03:04:50;;;;;;;58.83;30.23;;;9.20;99.90;;;;;;5044544;28;20049;-62
2023/05/15 03:07:15;;;;;;;77.35;30.08;;;9.30;99.90;;;;;;5044217;28;20064;-62
2023/05/15 03:09:41;;;;;;;75.35;31.00;;;9.30;99.90;;;;;;5032780;28;20041;-63
2023/05/15 03:12:07;;;;;;;114.72;29.67;;;9.20;99.90;;;;;;5035773;28;20040;-63
2023/05/15 03:14:33;;;;;;;128.85;32.05;;;9.20;99.90;;;;;;5034120;28;20033;-62
2023/05/15 03:16:59;;;;;;;76.32;27.83;;;9.10;99.90;;;;;;5029366;28;20052;-62
2023/05/15 03:19:25;;;;;;;67.53;29.88;;;9.10;99.90;;;;;;5027043;28;20044;-63
2023/05/15 03:21:50;;;;;;;58.90;29.15;;;9.10;99.90;;;;;;5040962;28;20045;-62
2023/05/15 03:24:16;;;;;;;56.00;27.45;;;9.10;99.90;;;;;;5042172;28;20116;-63
2023/05/15 03:26:42;;;;;;;68.10;30.08;;;9.10;99.90;;;;;;5034092;28;20041;-64
2023/05/15 03:29:08;;;;;;;61.53;29.73;;;9.10;99.90;;;;;;5036021;28;20123;-64
2023/05/15 03:31:34;;;;;;;68.78;32.85;;;9.00;99.90;;;;;;5039087;28;20063;-63
2023/05/15 03:33:59;;;;;;;61.35;29.70;;;9.00;99.90;;;;;;5038734;28;20041;-63
2023/05/15 03:36:25;;;;;;;58.35;29.17;;;9.00;99.90;;;;;;5041252;28;21969;-64
2023/05/15 03:38:50;;;;;;;60.92;30.02;;;9.10;99.90;;;;;;5045841;28;20504;-63
2023/05/15 03:41:16;;;;;;;51.83;25.08;;;9.10;99.90;;;;;;5034468;28;20047;-64
2023/05/15 03:43:41;;;;;;;56.10;25.85;;;9.20;99.90;;;;;;5032939;28;20040;-64
2023/05/15 03:46:07;;;;;;;45.85;23.75;;;9.00;99.90;;;;;;5039941;28;20040;-64
2023/05/15 03:48:33;;;;;;;49.97;25.80;;;9.00;99.90;;;;;;5038832;28;20048;-63
2023/05/15 03:50:59;;;;;;;49.35;25.15;;;8.90;99.90;;;;;;5031491;28;20033;-63
2023/05/15 03:53:25;;;;;;;34.22;17.52;;;8.80;99.90;;;;;;5041615;28;20373;-63
2023/05/15 03:55:50;;;;;;;31.15;16.95;;;9.00;99.90;;;;;;5047352;28;20491;-63
2023/05/15 03:58:16;;;;;;;45.80;23.83;;;8.90;99.90;;;;;;5040968;28;20396;-63
2023/05/15 04:00:41;;;;;;;43.90;22.05;;;8.90;99.90;;;;;;5037453;28;20073;-63
2023/05/15 04:03:07;;;;;;;46.97;24.73;;;8.80;99.90;;;;;;5039464;28;20472;-63
2023/05/15 04:05:33;;;;;;;46.75;23.67;;;8.80;99.90;;;;;;5044033;28;20080;-64
2023/05/15 04:07:58;;;;;;;47.67;25.42;;;8.90;99.90;;;;;;5044401;28;20048;-64
2023/05/15 04:10:24;;;;;;;46.95;24.27;;;8.90;99.90;;;;;;5045089;28;20033;-64
2023/05/15 04:12:50;;;;;;;46.70;25.48;;;8.90;99.90;;;;;;5047826;28;20082;-63
2023/05/15 04:15:21;;;;;;;43.72;20.58;;;8.90;99.90;;;;;;5037184;28;20049;-63
2023/05/15 04:17:48;;;;;;;46.50;25.58;;;8.90;99.90;;;;;;5041559;28;20041;-63
2023/05/15 04:20:16;;;;;;;41.60;20.52;;;8.90;99.90;;;;;;5043163;28;20488;-63
2023/05/15 04:22:42;;;;;;;44.22;23.60;;;8.90;99.90;;;;;;5043861;28;20041;-63
2023/05/15 04:25:09;;;;;;;46.00;24.10;;;8.90;99.90;;;;;;5039878;28;20045;-63
2023/05/15 04:27:36;;;;;;;42.55;22.30;;;9.00;99.90;;;;;;5039572;28;20072;-64
2023/05/15 04:30:03;;;;;;;45.20;23.08;;;8.90;99.90;;;;;;5037579;28;20047;-64
2023/05/15 04:32:29;;;;;;;41.75;22.17;;;8.90;99.90;;;;;;5039320;28;20603;-65
2023/05/15 04:34:55;;;;;;;42.88;22.75;;;9.00;99.90;;;;;;5043188;28;20056;-62
2023/05/15 04:37:21;;;;;;;44.85;23.27;;;9.00;99.90;;;;;;5042186;28;20040;-63
2023/05/15 04:39:46;;;;;;;38.50;19.27;;;8.90;99.90;;;;;;5040298;28;20498;-64
2023/05/15 04:42:12;;;;;;;39.97;22.20;;;9.00;99.90;;;;;;5038709;28;20045;-65
2023/05/15 04:44:37;;;;;;;43.55;23.90;;;9.00;99.90;;;;;;5040748;28;20033;-62
2023/05/15 04:47:03;;;;;;;45.63;22.63;;;9.00;99.90;;;;;;5042737;28;20541;-64
2023/05/15 04:49:29;;;;;;;46.13;23.17;;;9.10;99.90;;;;;;5043117;28;20102;-62
2023/05/15 04:51:55;;;;;;;45.10;23.42;;;9.10;99.90;;;;;;5044852;28;20431;-62
2023/05/15 04:54:20;;;;;;;37.25;17.13;;;9.10;99.90;;;;;;5036772;28;20084;-63
2023/05/15 04:56:46;;;;;;;44.47;24.40;;;9.10;99.90;;;;;;5040202;28;20053;-63
2023/05/15 04:59:12;;;;;;;41.13;19.38;;;9.20;99.90;;;;;;5074225;28;20041;-64
2023/05/15 05:01:38;;;;;;;45.17;24.58;;;9.20;99.90;;;;;;5043712;28;20480;-62
2023/05/15 05:04:04;;;;;;;38.70;18.25;;;9.20;99.90;;;;;;5040667;28;20044;-64
2023/05/15 05:06:29;;;;;;;35.80;19.25;;;9.20;99.90;;;;;;5040940;28;20133;-64
2023/05/15 05:08:55;;;;;;;41.53;21.67;;;9.10;99.90;;;;;;5038218;28;20064;-62
2023/05/15 05:11:21;;;;;;;43.70;23.73;;;9.10;99.90;;;;;;5040332;28;20049;-64
2023/05/15 05:13:46;;;;;;;39.00;20.58;;;9.10;99.90;;;;;;5037733;28;20044;-63
2023/05/15 05:16:12;;;;;;;35.65;19.60;;;9.20;99.90;;;;;;5044543;28;20048;-64
2023/05/15 05:18:37;;;;;;;39.47;22.60;;;9.30;99.90;;;;;;5043849;28;20048;-62
2023/05/15 05:21:03;;;;;;;40.92;23.45;;;9.30;99.90;;;;;;5044848;28;20116;-63
2023/05/15 05:23:29;;;;;;;37.63;20.80;;;9.30;99.90;;;;;;5042355;28;20095;-64
2023/05/15 05:25:55;;;;;;;42.40;25.10;;;9.30;99.90;;;;;;5044453;28;20037;-63
2023/05/15 05:28:21;;;;;;;43.67;24.65;;;9.40;99.90;;;;;;5043383;28;20033;-65
2023/05/15 05:30:47;;;;;;;40.97;23.10;;;9.40;99.90;;;;;;5048455;28;20097;-63
2023/05/15 05:33:13;;;;;;;46.10;25.83;;;9.40;99.90;;;;;;5046708;28;20455;-62
2023/05/15 05:35:39;;;;;;;45.05;25.25;;;9.50;99.90;;;;;;5044492;28;20099;-63
2023/05/15 05:38:05;;;;;;;44.30;24.52;;;9.50;99.90;;;;;;5047412;28;20438;-64
2023/05/15 05:40:30;;;;;;;34.50;15.88;;;9.70;99.90;;;;;;5045469;28;20102;-64
2023/05/15 05:43:00;;;;;;;36.30;17.45;;;9.80;99.90;;;;;;5045446;28;20116;-64
2023/05/15 05:45:26;;;;;;;33.50;20.10;;;9.80;99.90;;;;;;5077462;28;20372;-63
2023/05/15 05:47:51;;;;;;;38.45;23.05;;;9.80;99.90;;;;;;5040318;28;20041;-62
2023/05/15 05:50:17;;;;;;;36.15;21.10;;;9.80;99.90;;;;;;5044533;28;20056;-63
2023/05/15 05:52:42;;;;;;;34.78;19.08;;;9.80;99.90;;;;;;5048535;28;20509;-63
2023/05/15 05:55:09;;;;;;;34.35;21.00;;;9.90;99.90;;;;;;5041345;28;20499;-63
2023/05/15 05:57:34;;;;;;;36.75;20.95;;;9.90;99.90;;;;;;5043972;28;20475;-63
2023/05/15 06:00:00;;;;;;;36.15;21.50;;;9.90;99.90;;;;;;5051069;28;20068;-64
2023/05/15 06:02:26;;;;;;;36.60;21.52;;;10.00;99.90;;;;;;5049579;28;20128;-63
2023/05/15 06:04:51;;;;;;;37.72;22.33;;;10.10;99.90;;;;;;5049002;28;20474;-63
2023/05/15 06:07:17;;;;;;;36.35;21.70;;;10.10;99.90;;;;;;5043495;28;20760;-63
2023/05/15 06:09:44;;;;;;;36.70;21.75;;;10.20;99.90;;;;;;5047658;28;20037;-63
2023/05/15 06:12:10;;;;;;;38.08;22.17;;;10.20;99.90;;;;;;5041700;28;20102;-64
2023/05/15 06:14:35;;;;;;;36.92;22.35;;;10.30;99.90;;;;;;5041772;28;20337;-63
2023/05/15 06:17:01;;;;;;;36.75;21.63;;;10.30;99.90;;;;;;5049423;28;20120;-62
2023/05/15 06:19:28;;;;;;;35.28;21.73;;;10.40;99.90;;;;;;5040819;28;20114;-62
2023/05/15 06:21:53;;;;;;;34.53;21.85;;;10.50;99.90;;;;;;5063205;28;20029;-62
2023/05/15 06:24:19;;;;;;;36.50;21.92;;;10.70;99.90;;;;;;5045806;28;20079;-62
2023/05/15 06:26:44;;;;;;;32.63;20.83;;;10.80;99.90;;;;;;5049390;28;20132;-63
2023/05/15 06:29:10;;;;;;;38.17;22.48;;;10.90;99.90;;;;;;5045105;28;20037;-62
2023/05/15 06:31:36;;;;;;;33.15;20.58;;;10.90;99.90;;;;;;5076863;28;20549;-62
2023/05/15 06:34:01;;;;;;;35.03;21.52;;;11.00;99.90;;;;;;5046879;28;20039;-62
2023/05/15 06:36:28;;;;;;;36.58;21.08;;;11.10;99.90;;;;;;5044301;28;20087;-63
2023/05/15 06:38:54;;;;;;;34.22;20.30;;;11.20;99.90;;;;;;5030671;28;20073;-63
2023/05/15 06:41:20;;;;;;;31.30;20.75;;;11.30;99.90;;;;;;5035566;28;20128;-63
2023/05/15 06:43:46;;;;;;;32.83;22.33;;;11.40;99.90;;;;;;5042012;28;20029;-63
2023/05/15 06:46:14;;;;;;;37.10;22.15;;;11.50;99.90;;;;;;5043833;28;20042;-63
2023/05/15 06:48:40;;;;;;;33.05;20.73;;;11.60;99.90;;;;;;5043435;28;20143;-63
2023/05/15 06:51:06;;;;;;;32.13;20.48;;;11.80;99.90;;;;;;5036242;28;20124;-63
2023/05/15 06:53:31;;;;;;;31.00;20.13;;;11.90;99.90;;;;;;5043465;28;20566;-62
2023/05/15 06:55:58;;;;;;;29.75;20.08;;;12.00;99.90;;;;;;5045720;28;20041;-63
2023/05/15 06:58:24;;;;;;;30.20;19.42;;;12.10;99.90;;;;;;5037818;28;20048;-63
2023/05/15 07:00:50;;;;;;;30.33;19.75;;;12.20;99.90;;;;;;5049636;28;20040;-62
2023/05/15 07:03:16;;;;;;;30.67;20.38;;;12.20;99.90;;;;;;5039511;28;20375;-63
2023/05/15 07:05:42;;;;;;;31.15;20.05;;;12.30;99.90;;;;;;5040808;28;20041;-63
2023/05/15 07:08:08;;;;;;;29.67;19.75;;;12.40;99.90;;;;;;5043300;28;20036;-63
2023/05/15 07:10:34;;;;;;;29.63;19.80;;;12.50;99.90;;;;;;5047676;28;20048;-63
2023/05/15 07:12:59;;;;;;;28.83;18.70;;;12.60;99.90;;;;;;5041934;28;20048;-62
2023/05/15 07:15:25;;;;;;;32.05;19.92;;;12.70;99.90;;;;;;5040288;28;20167;-63
2023/05/15 07:17:51;;;;;;;28.55;19.75;;;12.70;99.90;;;;;;5045779;28;20052;-62
2023/05/15 07:20:16;;;;;;;29.15;19.23;;;12.80;99.90;;;;;;5041229;28;20182;-62
2023/05/15 07:22:42;;;;;;;30.35;20.52;;;12.90;99.90;;;;;;5036428;28;20465;-63
2023/05/15 07:25:08;;;;;;;28.50;19.42;;;12.90;99.90;;;;;;5047205;28;20044;-62
2023/05/15 07:27:34;;;;;;;30.35;20.77;;;12.90;99.90;;;;;;5042499;28;20752;-62
2023/05/15 07:30:03;;;;;;;27.30;19.30;;;13.00;99.90;;;;;;5045550;28;20659;-62
2023/05/15 07:32:29;;;;;;;30.00;19.13;;;13.10;99.90;;;;;;5043102;28;20051;-62
2023/05/15 07:34:55;;;;;;;29.27;19.63;;;13.10;99.90;;;;;;5042551;28;20049;-62
2023/05/15 07:37:22;;;;;;;28.67;19.58;;;13.10;99.90;;;;;;5040800;28;20401;-62
2023/05/15 07:39:48;;;;;;;29.58;20.00;;;13.10;99.90;;;;;;5043243;28;20104;-61
2023/05/15 07:42:14;;;;;;;28.98;19.80;;;13.10;99.90;;;;;;5044118;28;20033;-62
2023/05/15 07:44:39;;;;;;;28.55;19.15;;;13.30;99.90;;;;;;5039864;28;20090;-62
2023/05/15 07:47:05;;;;;;;31.25;20.15;;;13.30;99.90;;;;;;5044575;28;20032;-63
2023/05/15 07:49:30;;;;;;;30.98;20.48;;;13.50;99.90;;;;;;5040181;28;20060;-62
2023/05/15 07:51:56;;;;;;;26.95;18.50;;;13.50;99.90;;;;;;5044051;28;20499;-63
2023/05/15 07:54:21;;;;;;;25.75;19.30;;;13.50;99.90;;;;;;5041297;28;20115;-63
2023/05/15 07:56:47;;;;;;;27.17;19.55;;;13.70;99.90;;;;;;5043544;28;20120;-62
2023/05/15 07:59:13;;;;;;;26.83;18.45;;;13.80;99.90;;;;;;5041661;28;20470;-62
2023/05/15 08:01:38;;;;;;;27.23;19.10;;;14.00;99.90;;;;;;5043991;28;20482;-62
2023/05/15 08:04:06;;;;;;;28.55;18.65;;;14.10;99.90;;;;;;5043800;28;20127;-62
2023/05/15 08:06:32;;;;;;;27.58;18.67;;;14.10;99.90;;;;;;5040890;28;20120;-62
2023/05/15 08:08:58;;;;;;;25.05;18.25;;;14.20;99.90;;;;;;5040740;28;20468;-63
2023/05/15 08:11:23;;;;;;;23.00;17.10;;;14.20;99.90;;;;;;5041716;28;20116;-62
2023/05/15 08:13:49;;;;;;;26.73;17.38;;;14.20;99.90;;;;;;5045190;28;20036;-62
2023/05/15 08:16:15;;;;;;;25.90;16.85;;;14.20;99.90;;;;;;5044153;28;20073;-62
2023/05/15 08:18:40;;;;;;;24.25;15.88;;;14.20;99.90;;;;;;5032834;28;20079;-62
2023/05/15 08:21:06;;;;;;;26.90;18.23;;;14.20;99.90;;;;;;5047395;28;20048;-62
2023/05/15 08:23:31;;;;;;;23.02;17.13;;;14.20;99.90;;;;;;5039698;28;20041;-62
2023/05/15 08:25:58;;;;;;;25.30;18.05;;;14.40;99.90;;;;;;5037505;28;20119;-64
2023/05/15 08:28:23;;;;;;;25.20;18.40;;;14.40;99.90;;;;;;5033068;28;20049;-63
2023/05/15 08:30:49;;;;;;;27.85;19.25;;;14.40;99.90;;;;;;5038804;28;20480;-62
2023/05/15 08:33:14;;;;;;;27.20;17.42;;;14.50;99.90;;;;;;5043271;28;20029;-62
2023/05/15 08:35:40;;;;;;;24.85;17.65;;;14.60;99.90;;;;;;5046727;28;20084;-63
2023/05/15 08:38:06;;;;;;;25.55;18.20;;;14.70;99.90;;;;;;5043139;28;20044;-63
2023/05/15 08:40:31;;;;;;;25.30;17.35;;;14.70;99.90;;;;;;5038981;28;20056;-64
2023/05/15 08:43:02;;;;;;;30.15;19.13;;;14.80;99.90;;;;;;5043370;28;20488;-62
2023/05/15 08:45:28;;;;;;;27.52;18.48;;;14.80;99.90;;;;;;5039332;28;20082;-62
2023/05/15 08:47:55;;;;;;;26.73;18.50;;;15.00;99.90;;;;;;5047716;28;20074;-62
2023/05/15 08:50:22;;;;;;;23.30;16.60;;;15.10;99.90;;;;;;5048497;28;20033;-62
2023/05/15 08:52:50;;;;;;;25.70;17.63;;;15.10;99.90;;;;;;5038201;28;20046;-62
2023/05/15 08:55:16;;;;;;;24.73;18.15;;;15.20;99.90;;;;;;5041144;28;20036;-62
2023/05/15 08:57:43;;;;;;;23.98;18.17;;;15.20;99.90;;;;;;5040554;28;20044;-63
2023/05/15 09:00:13;;;;;;;23.67;17.20;;;15.20;99.90;;;;;;5074210;28;20048;-64
2023/05/15 09:02:39;;;;;;;24.38;17.10;;;15.20;99.90;;;;;;5044382;28;20120;-63
2023/05/15 09:05:05;;;;;;;23.58;16.80;;;15.30;99.90;;;;;;5041685;28;20033;-65
2023/05/15 09:07:32;;;;;;;22.40;17.25;;;15.40;99.90;;;;;;5053640;28;20048;-63
2023/05/15 09:09:58;;;;;;;22.70;16.40;;;15.40;99.90;;;;;;5045533;28;20183;-62
2023/05/15 09:12:25;;;;;;;23.23;17.40;;;15.50;99.90;;;;;;5048829;28;20530;-62
2023/05/15 09:15:06;;;;;;;20.73;15.95;;;15.60;99.90;;;;;;5046287;28;20492;-63
2023/05/15 09:17:32;;;;;;;24.83;17.00;;;15.60;99.90;;;;;;5050119;28;20492;-62
2023/05/15 09:19:57;;;;;;;19.73;15.52;;;15.70;99.90;;;;;;5050617;28;20085;-62
2023/05/15 09:22:24;;;;;;;22.40;16.10;;;15.70;99.90;;;;;;5033921;28;20039;-64
2023/05/15 09:24:51;;;;;;;20.95;16.20;;;15.80;99.90;;;;;;5049752;28;20110;-63
2023/05/15 09:27:18;;;;;;;21.85;16.15;;;15.80;99.90;;;;;;5049702;28;20083;-64
2023/05/15 09:29:44;;;;;;;24.27;16.70;;;15.80;99.90;;;;;;5048412;28;20033;-63
2023/05/15 09:32:12;;;;;;;21.67;16.52;;;15.90;99.90;;;;;;5049261;28;20047;-62
2023/05/15 09:34:40;;;;;;;22.27;16.77;;;16.00;99.90;;;;;;5046618;28;20044;-63
2023/05/15 09:37:12;;;;;;;20.60;16.15;;;16.00;99.90;;;;;;5045520;28;20128;-63
2023/05/15 09:39:41;;;;;;;21.98;16.67;;;16.10;99.90;;;;;;5038136;28;20045;-65
2023/05/15 09:42:12;;;;;;;22.17;16.95;;;16.10;99.90;;;;;;5043282;28;20511;-63
2023/05/15 09:44:42;;;;;;;25.08;16.27;;;16.10;99.90;;;;;;5049264;28;20041;-62
2023/05/15 09:47:09;;;;;;;21.63;15.60;;;16.20;99.90;;;;;;5046663;28;20549;-63
2023/05/15 09:49:35;;;;;;;24.13;16.65;;;16.40;99.90;;;;;;5046833;28;20115;-63
2023/05/15 09:52:01;;;;;;;20.52;16.88;;;16.30;99.90;;;;;;5042681;28;20202;-65
2023/05/15 09:54:28;;;;;;;21.52;16.20;;;16.20;99.90;;;;;;5048640;28;20045;-63
2023/05/15 09:56:55;;;;;;;21.35;17.85;;;16.20;99.90;;;;;;5047829;28;20103;-63
2023/05/15 09:59:20;;;;;;;24.70;19.08;;;16.20;99.90;;;;;;5047400;28;20044;-64
2023/05/15 10:01:49;;;;;;;27.23;20.15;;;16.40;99.90;;;;;;5050818;28;20086;-65
2023/05/15 10:04:15;;;;;;;26.13;21.17;;;16.50;99.90;;;;;;5050363;28;20045;-63
2023/05/15 10:06:44;;;;;;;28.98;22.05;;;16.70;99.90;;;;;;5050442;28;20045;-63
2023/05/15 10:09:10;;;;;;;28.40;21.10;;;16.60;99.90;;;;;;5044330;28;20377;-63
2023/05/15 10:11:37;;;;;;;27.17;21.48;;;16.80;99.90;;;;;;5034865;28;20037;-64
2023/05/15 10:14:05;;;;;;;27.85;21.80;;;16.80;99.90;;;;;;5043297;28;20129;-64
2023/05/15 10:16:36;;;;;;;26.88;21.40;;;16.90;99.90;;;;;;5052832;28;20048;-62
2023/05/15 10:19:04;;;;;;;32.08;22.13;;;17.00;99.90;;;;;;5046070;28;20051;-63
2023/05/15 10:21:40;;;;;;;26.90;22.58;;;17.00;99.90;;;;;;5045946;28;20051;-63
2023/05/15 10:24:07;;;;;;;28.48;23.55;;;17.10;99.90;;;;;;5045225;28;20047;-64
2023/05/15 10:26:37;;;;;;;29.50;23.20;;;17.10;99.90;;;;;;5048517;28;20049;-63
2023/05/15 10:29:09;;;;;;;28.35;21.98;;;17.30;99.90;;;;;;5047508;28;20043;-63
2023/05/15 10:31:35;;;;;;;28.70;22.15;;;17.30;99.90;;;;;;5051202;28;20148;-63
2023/05/15 10:34:03;;;;;;;28.02;22.33;;;17.40;99.90;;;;;;5044524;28;20380;-62
2023/05/15 10:36:30;;;;;;;30.20;21.92;;;17.40;99.90;;;;;;5034680;28;20088;-63
2023/05/15 10:38:57;;;;;;;28.10;21.25;;;17.40;99.90;;;;;;5041071;28;20400;-64
2023/05/15 10:41:24;;;;;;;28.73;21.23;;;17.40;99.90;;;;;;5048923;28;20033;-62
2023/05/15 10:43:52;;;;;;;27.77;21.35;;;17.30;99.90;;;;;;5040465;28;20412;-63
2023/05/15 10:46:18;;;;;;;26.15;21.25;;;17.20;99.90;;;;;;5045379;28;20048;-62
2023/05/15 10:48:44;;;;;;;27.33;20.77;;;17.10;99.90;;;;;;5041207;28;20404;-62
2023/05/15 10:51:17;;;;;;;27.58;21.45;;;17.10;99.90;;;;;;5049453;28;20041;-62
2023/05/15 10:53:44;;;;;;;25.45;21.17;;;17.00;99.90;;;;;;5029351;28;20052;-64
2023/05/15 10:56:16;;;;;;;28.23;20.15;;;17.10;99.90;;;;;;5041111;28;20392;-63
2023/05/15 10:58:47;;;;;;;24.58;19.52;;;17.20;99.90;;;;;;5040577;28;20118;-62
2023/05/15 11:01:33;;;;;;;25.88;18.65;;;17.30;99.90;;;;;;5044585;28;20071;-62
2023/05/15 11:04:08;;;;;;;26.65;21.58;;;17.40;99.90;;;;;;5037102;28;20033;-63
2023/05/15 11:06:34;;;;;;;27.48;21.35;;;17.30;99.90;;;;;;5037467;28;20057;-63
2023/05/15 11:09:24;;;;;;;25.35;21.55;;;17.30;99.90;;;;;;5037004;28;20132;-62
2023/05/15 11:12:01;;;;;;;25.77;20.95;;;17.30;99.90;;;;;;5043124;28;20040;-63
2023/05/15 11:14:29;;;;;;;25.35;21.73;;;17.30;99.90;;;;;;5038129;28;20555;-63
2023/05/15 11:16:56;;;;;;;26.20;20.48;;;17.20;99.90;;;;;;5038564;28;20041;-64
2023/05/15 11:19:27;;;;;;;26.65;18.85;;;17.20;99.90;;;;;;5042422;28;20049;-62
2023/05/15 11:21:57;;;;;;;26.40;20.63;;;17.30;99.90;;;;;;5040248;28;20064;-65
2023/05/15 11:24:27;;;;;;;24.95;19.83;;;17.40;99.90;;;;;;5028247;28;20041;-62
2023/05/15 11:27:01;;;;;;;22.05;18.50;;;17.30;99.90;;;;;;5044224;28;20037;-62
2023/05/15 11:29:26;;;;;;;24.10;17.83;;;17.40;99.90;;;;;;5040650;28;20037;-64
2023/05/15 11:31:52;;;;;;;18.67;14.13;;;17.30;99.90;;;;;;5047753;28;20044;-63
2023/05/15 11:34:31;;;;;;;20.63;15.63;;;17.40;99.90;;;;;;5045135;28;20041;-63
2023/05/15 11:36:58;;;;;;;20.05;15.75;;;17.40;99.90;;;;;;5037684;28;20039;-63
2023/05/15 11:39:24;;;;;;;18.70;15.73;;;17.40;99.90;;;;;;5050482;28;20021;-64
2023/05/15 11:41:50;;;;;;;24.45;15.88;;;17.60;99.90;;;;;;5046909;28;20068;-63
2023/05/15 11:44:23;;;;;;;17.30;13.45;;;17.70;99.90;;;;;;5043834;28;20510;-63
2023/05/15 11:46:50;;;;;;;16.55;12.50;;;17.80;99.90;;;;;;5040814;28;20485;-63
2023/05/15 11:49:19;;;;;;;15.10;12.63;;;17.70;99.90;;;;;;5038761;28;20037;-63
2023/05/15 11:51:47;;;;;;;13.20;10.57;;;17.60;99.90;;;;;;5038869;28;20665;-63
2023/05/15 11:54:13;;;;;;;14.68;10.45;;;17.70;99.90;;;;;;5039106;28;20384;-64
2023/05/15 11:56:45;;;;;;;15.65;12.35;;;17.90;99.90;;;;;;5041277;28;20049;-64
2023/05/15 11:59:14;;;;;;;;;;;18.10;99.90;;;;;;5039894;28;20523;-65
2023/05/15 12:01:46;;;;;;;24.33;15.43;;;18.10;99.90;;;;;;5041123;28;19917;-63
2023/05/15 12:04:16;;;;;;;19.60;13.75;;;17.90;99.90;;;;;;5039144;28;20060;-62
2023/05/15 12:06:46;;;;;;;19.45;14.20;;;17.70;99.90;;;;;;5046732;28;20555;-64
2023/05/15 12:09:16;;;;;;;19.80;15.48;;;17.60;99.90;;;;;;5050716;28;20106;-65
2023/05/15 12:11:49;;;;;;;23.50;15.90;;;17.60;99.90;;;;;;5049410;28;20072;-63
2023/05/15 12:14:15;;;;;;;17.08;13.45;;;17.50;99.90;;;;;;5047911;28;20491;-63
2023/05/15 12:16:40;;;;;;;20.15;15.63;;;17.30;99.90;;;;;;5049557;28;20064;-63
2023/05/15 12:19:06;;;;;;;20.65;15.93;;;17.20;99.90;;;;;;5040094;28;20041;-64
2023/05/15 12:21:32;;;;;;;20.23;15.32;;;17.30;99.90;;;;;;5032022;28;20488;-62
2023/05/15 12:23:58;;;;;;;20.08;16.65;;;17.30;99.90;;;;;;5048050;28;20041;-62
2023/05/15 12:26:25;;;;;;;21.20;14.98;;;17.50;99.90;;;;;;5048889;28;20033;-64
2023/05/15 12:28:51;;;;;;;20.00;13.90;;;17.60;99.90;;;;;;5038774;28;20041;-62
2023/05/15 12:31:18;;;;;;;17.73;12.00;;;17.80;99.90;;;;;;5035944;28;20038;-64